sensor_id;sensor_type;location;lat;lon;timestamp;pressure;altitude;pressure_sealevel;temperature;humidity
10948;BME280;5526;42.070;24.752;2023-10-31T00:01:20;99158.25;;;15.47;98.03
10948;BME280;5526;42.070;24.752;2023-10-31T00:03:47;99153.75;;;15.48;98.08
10948;BME280;5526;42.070;24.752;2023-10-31T00:06:14;99162.25;;;15.45;98.38
10948;BME280;5526;42.070;24.752;2023-10-31T00:08:41;99152.50;;;15.40;99.11
10948;BME280;5526;42.070;24.752;2023-10-31T00:11:10;99148.84;;;15.36;98.95
10948;BME280;5526;42.070;24.752;2023-10-31T00:13:37;99149.13;;;15.30;100.00
10948;BME280;5526;42.070;24.752;2023-10-31T00:16:05;99147.25;;;15.30;99.88
10948;BME280;5526;42.070;24.752;2023-10-31T00:18:32;99140.88;;;15.31;99.02
10948;BME280;5526;42.070;24.752;2023-10-31T00:20:59;99147.00;;;15.32;99.23
10948;BME280;5526;42.070;24.752;2023-10-31T00:23:26;99141.47;;;15.28;99.35
10948;BME280;5526;42.070;24.752;2023-10-31T00:25:53;99139.31;;;15.30;99.68
10948;BME280;5526;42.070;24.752;2023-10-31T00:28:22;99133.72;;;15.32;99.57
10948;BME280;5526;42.070;24.752;2023-10-31T00:30:49;99130.06;;;15.28;99.92
10948;BME280;5526;42.070;24.752;2023-10-31T00:33:16;99121.56;;;15.26;99.50
10948;BME280;5526;42.070;24.752;2023-10-31T00:35:43;99123.91;;;15.32;99.81
10948;BME280;5526;42.070;24.752;2023-10-31T00:38:10;99119.94;;;15.30;100.00
10948;BME280;5526;42.070;24.752;2023-10-31T00:40:37;99122.91;;;15.28;99.62
10948;BME280;5526;42.070;24.752;2023-10-31T00:43:04;99121.88;;;15.24;100.00
10948;BME280;5526;42.070;24.752;2023-10-31T00:45:32;99121.09;;;15.24;100.00
10948;BME280;5526;42.070;24.752;2023-10-31T00:47:59;99129.88;;;15.19;100.00
10948;BME280;5526;42.070;24.752;2023-10-31T00:50:26;99125.69;;;15.13;100.00
10948;BME280;5526;42.070;24.752;2023-10-31T00:52:53;99121.16;;;15.14;100.00
10948;BME280;5526;42.070;24.752;2023-10-31T00:55:20;99116.44;;;15.11;100.00
10948;BME280;5526;42.070;24.752;2023-10-31T00:57:48;99116.72;;;15.09;100.00
10948;BME280;5526;42.070;24.752;2023-10-31T01:00:16;99110.63;;;15.09;100.00
10948;BME280;5526;42.070;24.752;2023-10-31T01:02:44;99115.16;;;15.03;100.00
10948;BME280;5526;42.070;24.752;2023-10-31T01:05:11;99109.94;;;14.98;100.00
10948;BME280;5526;42.070;24.752;2023-10-31T01:07:38;99114.41;;;15.03;100.00
10948;BME280;5526;42.070;24.752;2023-10-31T01:10:06;99114.09;;;15.04;100.00
10948;BME280;5526;42.070;24.752;2023-10-31T01:12:33;99113.31;;;15.04;100.00
10948;BME280;5526;42.070;24.752;2023-10-31T01:15:00;99112.03;;;15.01;100.00
10948;BME280;5526;42.070;24.752;2023-10-31T01:17:27;99111.78;;;14.98;100.00
10948;BME280;5526;42.070;24.752;2023-10-31T01:19:56;99111.03;;;14.92;100.00
10948;BME280;5526;42.070;24.752;2023-10-31T01:22:23;99107.59;;;14.92;100.00
10948;BME280;5526;42.070;24.752;2023-10-31T01:24:50;99120.44;;;14.75;100.00
10948;BME280;5526;42.070;24.752;2023-10-31T01:27:17;99119.50;;;14.61;100.00
10948;BME280;5526;42.070;24.752;2023-10-31T01:29:44;99124.53;;;14.62;100.00
10948;BME280;5526;42.070;24.752;2023-10-31T01:32:11;99116.59;;;14.62;100.00
10948;BME280;5526;42.070;24.752;2023-10-31T01:34:38;99115.50;;;14.63;100.00
10948;BME280;5526;42.070;24.752;2023-10-31T01:37:07;99115.50;;;14.63;100.00
10948;BME280;5526;42.070;24.752;2023-10-31T01:39:35;99110.75;;;14.60;100.00
10948;BME280;5526;42.070;24.752;2023-10-31T01:42:03;99108.09;;;14.60;100.00
10948;BME280;5526;42.070;24.752;2023-10-31T01:44:30;99107.03;;;14.66;100.00
10948;BME280;5526;42.070;24.752;2023-10-31T01:46:57;99107.25;;;14.70;100.00
10948;BME280;5526;42.070;24.752;2023-10-31T01:49:24;99104.38;;;14.66;100.00
10948;BME280;5526;42.070;24.752;2023-10-31T01:51:51;99100.59;;;14.72;100.00
10948;BME280;5526;42.070;24.752;2023-10-31T01:54:20;99100.88;;;14.71;100.00
10948;BME280;5526;42.070;24.752;2023-10-31T01:56:47;99101.00;;;14.56;100.00
10948;BME280;5526;42.070;24.752;2023-10-31T01:59:16;99102.91;;;14.50;100.00
10948;BME280;5526;42.070;24.752;2023-10-31T02:01:43;99103.50;;;14.42;100.00
10948;BME280;5526;42.070;24.752;2023-10-31T02:04:11;99099.81;;;14.33;100.00
10948;BME280;5526;42.070;24.752;2023-10-31T02:06:38;99096.63;;;14.36;100.00
10948;BME280;5526;42.070;24.752;2023-10-31T02:09:05;99094.56;;;14.28;100.00
10948;BME280;5526;42.070;24.752;2023-10-31T02:11:34;99090.34;;;14.27;100.00
10948;BME280;5526;42.070;24.752;2023-10-31T02:14:01;99086.38;;;14.20;100.00
10948;BME280;5526;42.070;24.752;2023-10-31T02:16:28;99084.84;;;14.14;100.00
10948;BME280;5526;42.070;24.752;2023-10-31T02:18:55;99085.06;;;14.17;100.00
10948;BME280;5526;42.070;24.752;2023-10-31T02:21:25;99082.78;;;14.06;100.00
10948;BME280;5526;42.070;24.752;2023-10-31T02:23:57;99092.31;;;14.02;100.00
10948;BME280;5526;42.070;24.752;2023-10-31T02:26:28;99088.88;;;14.01;100.00
10948;BME280;5526;42.070;24.752;2023-10-31T02:28:56;99083.09;;;13.94;100.00
10948;BME280;5526;42.070;24.752;2023-10-31T02:31:23;99089.97;;;13.90;100.00
10948;BME280;5526;42.070;24.752;2023-10-31T02:33:50;99082.03;;;13.95;100.00
10948;BME280;5526;42.070;24.752;2023-10-31T02:36:17;99100.56;;;13.90;100.00
10948;BME280;5526;42.070;24.752;2023-10-31T02:38:44;99096.34;;;13.89;100.00
10948;BME280;5526;42.070;24.752;2023-10-31T02:41:13;99098.75;;;13.81;100.00
10948;BME280;5526;42.070;24.752;2023-10-31T02:43:40;99099.06;;;13.74;100.00
10948;BME280;5526;42.070;24.752;2023-10-31T02:46:08;99100.94;;;13.64;100.00
10948;BME280;5526;42.070;24.752;2023-10-31T02:48:37;99104.66;;;13.63;100.00
10948;BME280;5526;42.070;24.752;2023-10-31T02:51:05;99101.75;;;13.64;100.00
10948;BME280;5526;42.070;24.752;2023-10-31T02:53:32;99098.03;;;13.65;100.00
10948;BME280;5526;42.070;24.752;2023-10-31T02:56:00;99092.75;;;13.65;100.00
10948;BME280;5526;42.070;24.752;2023-10-31T02:58:28;99099.94;;;13.55;100.00
10948;BME280;5526;42.070;24.752;2023-10-31T03:00:55;99095.19;;;13.47;100.00
10948;BME280;5526;42.070;24.752;2023-10-31T03:03:22;99099.69;;;13.46;100.00
10948;BME280;5526;42.070;24.752;2023-10-31T03:05:50;99096.50;;;13.44;100.00
10948;BME280;5526;42.070;24.752;2023-10-31T03:08:17;99098.34;;;13.49;100.00
10948;BME280;5526;42.070;24.752;2023-10-31T03:10:47;99096.22;;;13.46;100.00
10948;BME280;5526;42.070;24.752;2023-10-31T03:13:16;99089.41;;;13.40;100.00
10948;BME280;5526;42.070;24.752;2023-10-31T03:15:45;99093.88;;;13.39;100.00
10948;BME280;5526;42.070;24.752;2023-10-31T03:18:12;99079.88;;;13.39;100.00
10948;BME280;5526;42.070;24.752;2023-10-31T03:20:43;99090.16;;;13.40;100.00
10948;BME280;5526;42.070;24.752;2023-10-31T03:23:12;99094.94;;;13.38;100.00
10948;BME280;5526;42.070;24.752;2023-10-31T03:25:39;99089.13;;;13.36;100.00
10948;BME280;5526;42.070;24.752;2023-10-31T03:28:17;99093.88;;;13.39;100.00
10948;BME280;5526;42.070;24.752;2023-10-31T03:30:47;99089.13;;;13.36;100.00
10948;BME280;5526;42.070;24.752;2023-10-31T03:33:15;99090.72;;;13.32;100.00
10948;BME280;5526;42.070;24.752;2023-10-31T03:35:43;99087.56;;;13.30;100.00
10948;BME280;5526;42.070;24.752;2023-10-31T03:38:10;99077.50;;;13.32;100.00
10948;BME280;5526;42.070;24.752;2023-10-31T03:40:38;99081.50;;;13.35;100.00
10948;BME280;5526;42.070;24.752;2023-10-31T03:43:05;99079.88;;;13.34;100.00
10948;BME280;5526;42.070;24.752;2023-10-31T03:45:32;99092.84;;;13.30;100.00
10948;BME280;5526;42.070;24.752;2023-10-31T03:48:00;99101.84;;;13.24;100.00
10948;BME280;5526;42.070;24.752;2023-10-31T03:50:27;99093.94;;;13.14;100.00
10948;BME280;5526;42.070;24.752;2023-10-31T03:52:54;99091.06;;;13.01;100.00
10948;BME280;5526;42.070;24.752;2023-10-31T03:55:21;99095.03;;;12.98;100.00
10948;BME280;5526;42.070;24.752;2023-10-31T03:57:49;99093.16;;;12.93;100.00
10948;BME280;5526;42.070;24.752;2023-10-31T04:00:16;99091.59;;;12.98;100.00
10948;BME280;5526;42.070;24.752;2023-10-31T04:02:44;99092.38;;;13.03;100.00
10948;BME280;5526;42.070;24.752;2023-10-31T04:05:12;99088.41;;;13.06;100.00
10948;BME280;5526;42.070;24.752;2023-10-31T04:07:39;99093.16;;;12.98;100.00
10948;BME280;5526;42.070;24.752;2023-10-31T04:10:07;99094.78;;;13.00;100.00
10948;BME280;5526;42.070;24.752;2023-10-31T04:12:35;99084.97;;;13.00;100.00
10948;BME280;5526;42.070;24.752;2023-10-31T04:15:02;99095.00;;;13.03;100.00
10948;BME280;5526;42.070;24.752;2023-10-31T04:17:30;99090.81;;;13.02;100.00
10948;BME280;5526;42.070;24.752;2023-10-31T04:19:57;99091.56;;;13.02;100.00
10948;BME280;5526;42.070;24.752;2023-10-31T04:22:25;99082.59;;;12.98;100.00
10948;BME280;5526;42.070;24.752;2023-10-31T04:24:52;99089.97;;;13.07;100.00
10948;BME280;5526;42.070;24.752;2023-10-31T04:27:19;99097.13;;;13.11;100.00
10948;BME280;5526;42.070;24.752;2023-10-31T04:29:46;99079.16;;;13.13;100.00
10948;BME280;5526;42.070;24.752;2023-10-31T04:32:14;99092.38;;;13.13;100.00
10948;BME280;5526;42.070;24.752;2023-10-31T04:34:41;99090.00;;;13.12;100.00
10948;BME280;5526;42.070;24.752;2023-10-31T04:37:08;99093.13;;;13.19;100.00
10948;BME280;5526;42.070;24.752;2023-10-31T04:39:36;99093.13;;;13.19;100.00
10948;BME280;5526;42.070;24.752;2023-10-31T04:42:04;99084.69;;;13.17;100.00
10948;BME280;5526;42.070;24.752;2023-10-31T04:44:31;99084.72;;;13.12;100.00
10948;BME280;5526;42.070;24.752;2023-10-31T04:46:58;99082.84;;;13.07;100.00
10948;BME280;5526;42.070;24.752;2023-10-31T04:49:25;99084.97;;;13.00;100.00
10948;BME280;5526;42.070;24.752;2023-10-31T04:51:52;99076.78;;;13.07;100.00
10948;BME280;5526;42.070;24.752;2023-10-31T04:54:19;99075.97;;;13.11;100.00
10948;BME280;5526;42.070;24.752;2023-10-31T04:56:49;99074.41;;;13.10;100.00
10948;BME280;5526;42.070;24.752;2023-10-31T04:59:16;99065.16;;;13.08;100.00
10948;BME280;5526;42.070;24.752;2023-10-31T05:01:48;99069.91;;;13.06;100.00
10948;BME280;5526;42.070;24.752;2023-10-31T05:04:16;99071.00;;;13.00;100.00
10948;BME280;5526;42.070;24.752;2023-10-31T05:06:43;99075.72;;;13.02;100.00
10948;BME280;5526;42.070;24.752;2023-10-31T05:09:10;99070.69;;;13.01;100.00
10948;BME280;5526;42.070;24.752;2023-10-31T05:11:37;99067.03;;;13.02;100.00
10948;BME280;5526;42.070;24.752;2023-10-31T05:14:07;99063.06;;;13.05;100.00
10948;BME280;5526;42.070;24.752;2023-10-31T05:16:39;99067.81;;;13.08;100.00
10948;BME280;5526;42.070;24.752;2023-10-31T05:19:06;99060.13;;;13.11;100.00
10948;BME280;5526;42.070;24.752;2023-10-31T05:21:33;99054.81;;;13.16;100.00
10948;BME280;5526;42.070;24.752;2023-10-31T05:24:00;99052.72;;;13.18;100.00
10948;BME280;5526;42.070;24.752;2023-10-31T05:26:28;99063.00;;;13.15;100.00
10948;BME280;5526;42.070;24.752;2023-10-31T05:28:55;99070.16;;;13.14;100.00
10948;BME280;5526;42.070;24.752;2023-10-31T05:31:24;99075.16;;;13.21;100.00
10948;BME280;5526;42.070;24.752;2023-10-31T05:33:51;99073.03;;;13.23;100.00
10948;BME280;5526;42.070;24.752;2023-10-31T05:36:19;99082.53;;;13.29;100.00
10948;BME280;5526;42.070;24.752;2023-10-31T05:38:46;99094.44;;;13.31;100.00
10948;BME280;5526;42.070;24.752;2023-10-31T05:41:14;99093.41;;;13.22;100.00
10948;BME280;5526;42.070;24.752;2023-10-31T05:43:41;99097.91;;;13.17;100.00
10948;BME280;5526;42.070;24.752;2023-10-31T05:46:08;99105.81;;;13.22;100.00
10948;BME280;5526;42.070;24.752;2023-10-31T05:48:38;99103.41;;;13.35;100.00
10948;BME280;5526;42.070;24.752;2023-10-31T05:51:11;99101.81;;;13.39;100.00
10948;BME280;5526;42.070;24.752;2023-10-31T05:53:40;99107.66;;;13.31;100.00
10948;BME280;5526;42.070;24.752;2023-10-31T05:56:08;99108.16;;;13.38;100.00
10948;BME280;5526;42.070;24.752;2023-10-31T05:58:36;99118.44;;;13.45;100.00
10948;BME280;5526;42.070;24.752;2023-10-31T06:01:04;99113.41;;;13.53;100.00
10948;BME280;5526;42.070;24.752;2023-10-31T06:03:32;99111.19;;;13.75;100.00
10948;BME280;5526;42.070;24.752;2023-10-31T06:06:00;99122.75;;;13.94;100.00
10948;BME280;5526;42.070;24.752;2023-10-31T06:08:27;99125.16;;;13.96;100.00
10948;BME280;5526;42.070;24.752;2023-10-31T06:10:55;99118.78;;;14.02;100.00
10948;BME280;5526;42.070;24.752;2023-10-31T06:13:23;99121.91;;;14.09;100.00
10948;BME280;5526;42.070;24.752;2023-10-31T06:15:51;99120.56;;;14.16;100.00
10948;BME280;5526;42.070;24.752;2023-10-31T06:18:18;99115.47;;;14.30;100.00
10948;BME280;5526;42.070;24.752;2023-10-31T06:20:46;99122.13;;;14.27;100.00
10948;BME280;5526;42.070;24.752;2023-10-31T06:23:14;99124.41;;;14.39;100.00
10948;BME280;5526;42.070;24.752;2023-10-31T06:25:42;99126.34;;;14.67;100.00
10948;BME280;5526;42.070;24.752;2023-10-31T06:28:09;99117.63;;;14.66;100.00
10948;BME280;5526;42.070;24.752;2023-10-31T06:30:36;99130.28;;;14.69;100.00
10948;BME280;5526;42.070;24.752;2023-10-31T06:33:03;99116.84;;;14.94;100.00
10948;BME280;5526;42.070;24.752;2023-10-31T06:35:33;99117.31;;;15.01;100.00
10948;BME280;5526;42.070;24.752;2023-10-31T06:38:00;99126.09;;;14.97;100.00
10948;BME280;5526;42.070;24.752;2023-10-31T06:40:28;99131.22;;;15.17;99.35
10948;BME280;5526;42.070;24.752;2023-10-31T06:42:55;99143.34;;;14.94;99.68
10948;BME280;5526;42.070;24.752;2023-10-31T06:45:23;99135.03;;;14.72;100.00
10948;BME280;5526;42.070;24.752;2023-10-31T06:47:50;99128.31;;;14.85;99.80
10948;BME280;5526;42.070;24.752;2023-10-31T06:50:17;99132.75;;;14.94;98.90
10948;BME280;5526;42.070;24.752;2023-10-31T06:52:44;99135.13;;;14.96;99.34
10948;BME280;5526;42.070;24.752;2023-10-31T06:55:12;99139.28;;;15.07;99.38
10948;BME280;5526;42.070;24.752;2023-10-31T06:57:41;99144.66;;;15.25;98.73
10948;BME280;5526;42.070;24.752;2023-10-31T07:00:10;99124.25;;;14.97;99.91
10948;BME280;5526;42.070;24.752;2023-10-31T07:02:37;99126.16;;;15.20;99.46
10948;BME280;5526;42.070;24.752;2023-10-31T07:05:05;99117.53;;;15.33;98.66
10948;BME280;5526;42.070;24.752;2023-10-31T07:07:32;99124.03;;;15.51;97.16
10948;BME280;5526;42.070;24.752;2023-10-31T07:09:59;99119.72;;;15.55;97.93
10948;BME280;5526;42.070;24.752;2023-10-31T07:12:26;99113.88;;;15.58;97.68
10948;BME280;5526;42.070;24.752;2023-10-31T07:14:55;99103.91;;;15.68;96.33
10948;BME280;5526;42.070;24.752;2023-10-31T07:17:24;99109.63;;;15.80;96.60
10948;BME280;5526;42.070;24.752;2023-10-31T07:19:51;99110.56;;;16.08;95.29
10948;BME280;5526;42.070;24.752;2023-10-31T07:22:18;99117.13;;;16.15;94.49
10948;BME280;5526;42.070;24.752;2023-10-31T07:24:45;99115.69;;;16.23;94.76
10948;BME280;5526;42.070;24.752;2023-10-31T07:27:12;99119.97;;;16.19;94.07
10948;BME280;5526;42.070;24.752;2023-10-31T07:29:39;99112.66;;;16.29;93.90
10948;BME280;5526;42.070;24.752;2023-10-31T07:32:08;99100.63;;;16.55;92.13
10948;BME280;5526;42.070;24.752;2023-10-31T07:34:36;99107.91;;;16.82;90.15
10948;BME280;5526;42.070;24.752;2023-10-31T07:37:03;99090.41;;;16.94;89.48
10948;BME280;5526;42.070;24.752;2023-10-31T07:39:30;99104.88;;;17.21;87.77
10948;BME280;5526;42.070;24.752;2023-10-31T07:41:57;99104.91;;;17.48;86.28
10948;BME280;5526;42.070;24.752;2023-10-31T07:44:25;99108.34;;;17.48;86.53
10948;BME280;5526;42.070;24.752;2023-10-31T07:46:52;99099.28;;;17.63;85.10
10948;BME280;5526;42.070;24.752;2023-10-31T07:49:20;99094.34;;;17.70;84.01
10948;BME280;5526;42.070;24.752;2023-10-31T07:51:48;99098.78;;;17.88;82.74
10948;BME280;5526;42.070;24.752;2023-10-31T07:54:15;99088.81;;;18.07;81.47
10948;BME280;5526;42.070;24.752;2023-10-31T07:56:43;99092.31;;;18.16;81.57
10948;BME280;5526;42.070;24.752;2023-10-31T07:59:10;99084.91;;;18.13;80.87
10948;BME280;5526;42.070;24.752;2023-10-31T08:01:37;99076.88;;;18.40;79.68
10948;BME280;5526;42.070;24.752;2023-10-31T08:04:05;99077.47;;;18.37;78.49
10948;BME280;5526;42.070;24.752;2023-10-31T08:06:33;99072.16;;;18.37;78.08
10948;BME280;5526;42.070;24.752;2023-10-31T08:09:00;99065.69;;;18.51;77.38
10948;BME280;5526;42.070;24.752;2023-10-31T08:11:28;99061.50;;;18.81;76.35
10948;BME280;5526;42.070;24.752;2023-10-31T08:13:55;99051.88;;;19.02;75.34
10948;BME280;5526;42.070;24.752;2023-10-31T08:16:22;99050.53;;;19.21;74.31
10948;BME280;5526;42.070;24.752;2023-10-31T08:18:49;99035.41;;;19.39;73.18
10948;BME280;5526;42.070;24.752;2023-10-31T08:21:17;99038.00;;;19.61;71.83
10948;BME280;5526;42.070;24.752;2023-10-31T08:23:45;99034.28;;;19.79;70.95
10948;BME280;5526;42.070;24.752;2023-10-31T08:26:12;99037.25;;;19.94;70.29
10948;BME280;5526;42.070;24.752;2023-10-31T08:28:40;99038.41;;;20.10;69.82
10948;BME280;5526;42.070;24.752;2023-10-31T08:31:07;99027.88;;;20.14;69.44
10948;BME280;5526;42.070;24.752;2023-10-31T08:33:34;99029.56;;;20.44;68.09
10948;BME280;5526;42.070;24.752;2023-10-31T08:36:01;99031.59;;;20.64;66.59
10948;BME280;5526;42.070;24.752;2023-10-31T08:38:28;99022.94;;;20.75;65.29
10948;BME280;5526;42.070;24.752;2023-10-31T08:40:58;99022.91;;;20.84;63.84
10948;BME280;5526;42.070;24.752;2023-10-31T08:43:25;99033.28;;;20.94;63.93
10948;BME280;5526;42.070;24.752;2023-10-31T08:45:52;99034.31;;;21.10;63.11
10948;BME280;5526;42.070;24.752;2023-10-31T08:48:20;99031.19;;;21.08;62.72
10948;BME280;5526;42.070;24.752;2023-10-31T08:50:47;99035.00;;;20.81;63.26
10948;BME280;5526;42.070;24.752;2023-10-31T08:53:15;99032.50;;;20.76;63.47
10948;BME280;5526;42.070;24.752;2023-10-31T08:55:42;99031.75;;;20.67;63.87
10948;BME280;5526;42.070;24.752;2023-10-31T08:58:11;99042.22;;;20.89;62.22
10948;BME280;5526;42.070;24.752;2023-10-31T09:00:39;99037.22;;;20.79;62.73
10948;BME280;5526;42.070;24.752;2023-10-31T09:03:06;99013.81;;;20.68;62.51
10948;BME280;5526;42.070;24.752;2023-10-31T09:05:33;99012.75;;;21.15;61.02
10948;BME280;5526;42.070;24.752;2023-10-31T09:08:01;99003.63;;;21.16;60.52
10948;BME280;5526;42.070;24.752;2023-10-31T09:10:28;99003.41;;;21.30;59.56
10948;BME280;5526;42.070;24.752;2023-10-31T09:12:55;98991.66;;;21.14;60.15
10948;BME280;5526;42.070;24.752;2023-10-31T09:15:24;98992.50;;;20.97;60.48
10948;BME280;5526;42.070;24.752;2023-10-31T09:17:51;98986.66;;;21.33;58.89
10948;BME280;5526;42.070;24.752;2023-10-31T09:20:18;98974.78;;;22.12;54.88
10948;BME280;5526;42.070;24.752;2023-10-31T09:22:45;98966.50;;;22.70;51.86
10948;BME280;5526;42.070;24.752;2023-10-31T09:25:13;98963.22;;;22.32;53.68
10948;BME280;5526;42.070;24.752;2023-10-31T09:27:41;98954.34;;;22.08;54.24
10948;BME280;5526;42.070;24.752;2023-10-31T09:30:08;98945.13;;;21.97;55.33
10948;BME280;5526;42.070;24.752;2023-10-31T09:32:37;98939.31;;;21.95;54.84
10948;BME280;5526;42.070;24.752;2023-10-31T09:35:04;98937.97;;;22.21;54.29
10948;BME280;5526;42.070;24.752;2023-10-31T09:37:33;98937.00;;;22.38;53.78
10948;BME280;5526;42.070;24.752;2023-10-31T09:40:00;98928.81;;;22.55;53.80
10948;BME280;5526;42.070;24.752;2023-10-31T09:42:28;98919.44;;;22.40;53.78
10948;BME280;5526;42.070;24.752;2023-10-31T09:44:55;98912.13;;;23.45;48.70
10948;BME280;5526;42.070;24.752;2023-10-31T09:47:22;98915.09;;;22.92;51.66
10948;BME280;5526;42.070;24.752;2023-10-31T09:49:51;98915.66;;;22.86;51.80
10948;BME280;5526;42.070;24.752;2023-10-31T09:52:18;98911.38;;;22.73;52.57
10948;BME280;5526;42.070;24.752;2023-10-31T09:54:47;98907.03;;;22.92;52.74
10948;BME280;5526;42.070;24.752;2023-10-31T09:57:16;98890.13;;;23.04;52.98
10948;BME280;5526;42.070;24.752;2023-10-31T09:59:44;98884.09;;;23.98;47.92
10948;BME280;5526;42.070;24.752;2023-10-31T10:02:11;98878.84;;;23.34;49.56
10948;BME280;5526;42.070;24.752;2023-10-31T10:04:39;98882.84;;;23.40;49.60
10948;BME280;5526;42.070;24.752;2023-10-31T10:07:08;98872.53;;;23.42;49.57
10948;BME280;5526;42.070;24.752;2023-10-31T10:09:35;98870.91;;;23.53;50.16
10948;BME280;5526;42.070;24.752;2023-10-31T10:12:02;98858.09;;;23.74;49.13
10948;BME280;5526;42.070;24.752;2023-10-31T10:14:32;98857.78;;;23.36;49.92
10948;BME280;5526;42.070;24.752;2023-10-31T10:16:59;98847.16;;;23.28;49.90
10948;BME280;5526;42.070;24.752;2023-10-31T10:19:26;98845.13;;;23.37;49.92
10948;BME280;5526;42.070;24.752;2023-10-31T10:21:55;98838.06;;;23.44;50.11
10948;BME280;5526;42.070;24.752;2023-10-31T10:24:24;98838.94;;;23.48;49.13
10948;BME280;5526;42.070;24.752;2023-10-31T10:26:52;98825.25;;;23.26;50.05
10948;BME280;5526;42.070;24.752;2023-10-31T10:29:19;98840.75;;;23.72;49.15
10948;BME280;5526;42.070;24.752;2023-10-31T10:31:46;98829.22;;;23.71;49.32
10948;BME280;5526;42.070;24.752;2023-10-31T10:34:14;98824.91;;;23.55;49.49
10948;BME280;5526;42.070;24.752;2023-10-31T10:36:46;98819.81;;;23.65;49.15
10948;BME280;5526;42.070;24.752;2023-10-31T10:39:18;98814.97;;;23.71;48.93
10948;BME280;5526;42.070;24.752;2023-10-31T10:41:52;98822.22;;;23.82;49.32
10948;BME280;5526;42.070;24.752;2023-10-31T10:44:27;98817.53;;;23.79;48.46
10948;BME280;5526;42.070;24.752;2023-10-31T10:46:58;98821.22;;;23.59;49.64
10948;BME280;5526;42.070;24.752;2023-10-31T10:49:29;98817.28;;;23.84;49.06
10948;BME280;5526;42.070;24.752;2023-10-31T10:52:03;98805.72;;;23.96;48.18
10948;BME280;5526;42.070;24.752;2023-10-31T10:54:34;98793.28;;;23.91;49.03
10948;BME280;5526;42.070;24.752;2023-10-31T10:57:15;98799.56;;;24.11;48.66
10948;BME280;5526;42.070;24.752;2023-10-31T10:59:48;98803.38;;;24.25;48.46
10948;BME280;5526;42.070;24.752;2023-10-31T11:02:18;98797.31;;;24.13;48.31
10948;BME280;5526;42.070;24.752;2023-10-31T11:04:46;98799.66;;;24.14;47.95
10948;BME280;5526;42.070;24.752;2023-10-31T11:07:15;98783.25;;;24.19;47.64
10948;BME280;5526;42.070;24.752;2023-10-31T11:09:44;98775.34;;;24.26;47.56
10948;BME280;5526;42.070;24.752;2023-10-31T11:12:14;98774.81;;;24.52;47.57
10948;BME280;5526;42.070;24.752;2023-10-31T11:14:42;98773.06;;;24.60;47.06
10948;BME280;5526;42.070;24.752;2023-10-31T11:17:16;98772.81;;;24.49;46.73
10948;BME280;5526;42.070;24.752;2023-10-31T11:19:49;98764.41;;;24.19;47.94
10948;BME280;5526;42.070;24.752;2023-10-31T11:22:17;98759.22;;;24.26;47.63
10948;BME280;5526;42.070;24.752;2023-10-31T11:24:45;98759.47;;;24.37;47.45
10948;BME280;5526;42.070;24.752;2023-10-31T11:27:13;98755.19;;;24.51;47.97
10948;BME280;5526;42.070;24.752;2023-10-31T11:29:40;98756.13;;;24.59;47.11
10948;BME280;5526;42.070;24.752;2023-10-31T11:32:08;98752.44;;;24.83;46.54
10948;BME280;5526;42.070;24.752;2023-10-31T11:34:38;98744.38;;;24.83;46.10
10948;BME280;5526;42.070;24.752;2023-10-31T11:37:24;98750.59;;;24.87;46.93
10948;BME280;5526;42.070;24.752;2023-10-31T11:40:15;98743.19;;;24.99;45.74
10948;BME280;5526;42.070;24.752;2023-10-31T11:42:47;98738.38;;;25.27;46.51
10948;BME280;5526;42.070;24.752;2023-10-31T11:45:25;98732.78;;;25.17;44.99
10948;BME280;5526;42.070;24.752;2023-10-31T11:47:53;98725.00;;;25.12;45.58
10948;BME280;5526;42.070;24.752;2023-10-31T11:50:21;98726.13;;;25.11;45.55
10948;BME280;5526;42.070;24.752;2023-10-31T11:53:02;98716.63;;;25.17;45.10
10948;BME280;5526;42.070;24.752;2023-10-31T11:55:31;98710.94;;;25.22;44.79
10948;BME280;5526;42.070;24.752;2023-10-31T11:58:17;98712.50;;;25.23;44.82
10948;BME280;5526;42.070;24.752;2023-10-31T12:00:45;98702.75;;;25.15;44.47
10948;BME280;5526;42.070;24.752;2023-10-31T12:03:16;98709.38;;;25.02;44.46
10948;BME280;5526;42.070;24.752;2023-10-31T12:05:51;98703.44;;;24.93;44.39
10948;BME280;5526;42.070;24.752;2023-10-31T12:08:25;98682.91;;;24.85;45.56
10948;BME280;5526;42.070;24.752;2023-10-31T12:10:52;98679.63;;;24.95;45.37
10948;BME280;5526;42.070;24.752;2023-10-31T12:13:21;98678.78;;;24.91;45.26
10948;BME280;5526;42.070;24.752;2023-10-31T12:15:51;98680.75;;;24.94;45.18
10948;BME280;5526;42.070;24.752;2023-10-31T12:18:19;98677.06;;;25.02;44.67
10948;BME280;5526;42.070;24.752;2023-10-31T12:20:47;98677.00;;;24.98;44.98
10948;BME280;5526;42.070;24.752;2023-10-31T12:23:15;98669.94;;;24.90;45.01
10948;BME280;5526;42.070;24.752;2023-10-31T12:25:46;98669.84;;;24.87;44.83
10948;BME280;5526;42.070;24.752;2023-10-31T12:28:16;98646.09;;;24.92;45.20
10948;BME280;5526;42.070;24.752;2023-10-31T12:30:46;98652.28;;;25.12;44.94
10948;BME280;5526;42.070;24.752;2023-10-31T12:33:14;98644.31;;;25.19;44.79
10948;BME280;5526;42.070;24.752;2023-10-31T12:35:42;98651.19;;;25.16;44.88
10948;BME280;5526;42.070;24.752;2023-10-31T12:38:13;98640.34;;;25.13;44.56
10948;BME280;5526;42.070;24.752;2023-10-31T12:40:42;98636.41;;;25.07;45.36
10948;BME280;5526;42.070;24.752;2023-10-31T12:43:09;98627.75;;;24.98;45.71
10948;BME280;5526;42.070;24.752;2023-10-31T12:45:37;98622.44;;;25.01;45.04
10948;BME280;5526;42.070;24.752;2023-10-31T12:48:06;98623.56;;;25.00;44.83
10948;BME280;5526;42.070;24.752;2023-10-31T12:50:35;98620.69;;;24.90;45.18
10948;BME280;5526;42.070;24.752;2023-10-31T12:53:03;98623.81;;;24.92;45.30
10948;BME280;5526;42.070;24.752;2023-10-31T12:55:37;98620.75;;;24.93;45.07
10948;BME280;5526;42.070;24.752;2023-10-31T12:58:05;98617.94;;;24.86;45.25
10948;BME280;5526;42.070;24.752;2023-10-31T13:00:34;98600.28;;;24.89;45.05